createdAt,value
2018-05-11T00:00:27.035Z,11.60
2018-05-11T00:02:54.643Z,11.60
2018-05-11T00:05:22.297Z,11.60
2018-05-11T00:07:49.954Z,11.50
2018-05-11T00:10:17.605Z,11.40
2018-05-11T00:12:45.207Z,11.40
2018-05-11T00:15:13.639Z,11.50
2018-05-11T00:17:41.242Z,11.50
2018-05-11T00:20:09.979Z,11.60
2018-05-11T00:22:37.567Z,11.50
2018-05-11T00:25:05.196Z,11.60
2018-05-11T00:27:32.845Z,11.70
2018-05-11T00:30:00.463Z,11.60
2018-05-11T00:32:28.824Z,11.50
2018-05-11T00:34:56.482Z,11.50
2018-05-11T00:37:24.390Z,11.50
2018-05-11T00:39:52.006Z,11.60
2018-05-11T00:42:19.626Z,11.60
2018-05-11T00:44:48.062Z,11.50
2018-05-11T00:47:15.683Z,11.50
2018-05-11T00:49:43.311Z,11.50
2018-05-11T00:52:11.004Z,11.50
2018-05-11T00:54:38.596Z,11.40
2018-05-11T00:57:06.296Z,11.40
2018-05-11T00:59:33.890Z,11.30
2018-05-11T01:02:01.565Z,11.40
2018-05-11T01:04:29.153Z,11.40
2018-05-11T01:06:56.779Z,11.40
2018-05-11T01:09:24.362Z,11.40
2018-05-11T01:11:52.357Z,11.40
2018-05-11T01:14:19.977Z,11.40
2018-05-11T01:16:47.586Z,11.40
2018-05-11T01:19:15.170Z,11.40
2018-05-11T01:21:42.792Z,11.30
2018-05-11T01:24:10.484Z,11.30
2018-05-11T01:26:38.854Z,11.30
2018-05-11T01:29:07.238Z,11.30
2018-05-11T01:31:35.638Z,11.30
2018-05-11T01:34:03.191Z,11.30
2018-05-11T01:36:30.737Z,11.20
2018-05-11T01:38:59.067Z,11.20
2018-05-11T01:41:26.644Z,11.20
2018-05-11T01:43:54.250Z,11.20
2018-05-11T01:46:22.553Z,11.30
2018-05-11T01:48:50.232Z,11.30
2018-05-11T01:51:18.577Z,11.30
2018-05-11T01:53:46.126Z,11.30
2018-05-11T01:56:13.708Z,11.30
2018-05-11T01:58:41.331Z,11.20
2018-05-11T02:01:08.899Z,11.20
2018-05-11T02:03:37.243Z,11.00
2018-05-11T02:06:05.607Z,11.00
2018-05-11T02:08:34.024Z,11.00
2018-05-11T02:11:01.619Z,10.90
2018-05-11T02:13:29.935Z,10.80
2018-05-11T02:15:57.488Z,10.80
2018-05-11T02:18:25.130Z,10.80
2018-05-11T02:20:52.750Z,10.70
2018-05-11T02:23:21.072Z,10.60
2018-05-11T02:25:48.718Z,10.60
2018-05-11T02:28:17.085Z,10.60
2018-05-11T02:30:44.682Z,10.60
2018-05-11T02:33:12.294Z,10.60
2018-05-11T02:35:40.653Z,10.40
2018-05-11T02:38:08.217Z,10.40
2018-05-11T02:40:35.749Z,10.30
2018-05-11T02:43:03.359Z,10.30
2018-05-11T02:45:30.898Z,10.20
2018-05-11T02:47:59.275Z,10.00
2018-05-11T02:50:26.895Z,10.00
2018-05-11T02:52:54.517Z,10.10
2018-05-11T02:55:22.928Z,10.00
2018-05-11T02:57:50.601Z,10.00
2018-05-11T03:00:18.252Z,10.00
2018-05-11T03:02:46.627Z,10.00
2018-05-11T03:05:14.215Z,10.00
2018-05-11T03:07:41.841Z,10.00
2018-05-11T03:10:09.536Z,10.00
2018-05-11T03:12:37.070Z,9.90
2018-05-11T03:15:04.717Z,9.80
2018-05-11T03:17:32.514Z,9.80
2018-05-11T03:20:01.109Z,9.70
2018-05-11T03:22:28.646Z,9.70
2018-05-11T03:24:56.279Z,9.60
2018-05-11T03:27:24.582Z,9.50
2018-05-11T03:29:52.221Z,9.50
2018-05-11T03:32:19.792Z,9.60
2018-05-11T03:34:47.332Z,9.60
2018-05-11T03:37:15.683Z,9.40
2018-05-11T03:39:43.273Z,9.50
2018-05-11T03:42:11.662Z,9.50
2018-05-11T03:44:39.288Z,9.50
2018-05-11T03:47:06.856Z,9.50
2018-05-11T03:49:34.460Z,9.40
2018-05-11T03:52:02.831Z,9.40
2018-05-11T03:54:30.467Z,9.40
2018-05-11T03:56:58.813Z,9.30
2018-05-11T03:59:26.464Z,9.30
2018-05-11T04:02:05.624Z,9.20
2018-05-11T04:07:45.071Z,9.20
2018-05-11T04:10:12.631Z,9.10
2018-05-11T04:12:40.271Z,8.90
2018-05-11T04:15:07.866Z,9.00
2018-05-11T04:17:35.433Z,9.00
2018-05-11T04:20:03.791Z,9.00
2018-05-11T04:22:31.381Z,9.00
2018-05-11T04:24:58.990Z,9.00
2018-05-11T04:27:26.549Z,9.10
2018-05-11T04:29:55.038Z,9.20
2018-05-11T04:32:22.683Z,9.30
2018-05-11T04:34:50.271Z,9.40
2018-05-11T04:37:17.924Z,9.50
2018-05-11T04:39:45.415Z,9.70
2018-05-11T04:42:14.788Z,9.90
2018-05-11T04:44:43.151Z,9.90
2018-05-11T04:47:10.918Z,9.90
2018-05-11T04:49:38.464Z,10.00
2018-05-11T04:52:06.097Z,10.10
2018-05-11T04:54:33.703Z,10.20
2018-05-11T04:57:01.286Z,10.40
2018-05-11T04:59:28.843Z,10.60
2018-05-11T05:01:56.402Z,10.80
2018-05-11T05:04:23.991Z,11.00
2018-05-11T05:06:52.329Z,11.10
2018-05-11T05:09:19.914Z,11.20
2018-05-11T05:11:47.528Z,11.30
2018-05-11T05:14:15.155Z,11.40
2018-05-11T05:16:42.787Z,11.50
2018-05-11T05:19:10.394Z,11.50
2018-05-11T05:21:37.976Z,11.60
2018-05-11T05:24:05.548Z,11.80
2018-05-11T05:26:33.101Z,11.90
2018-05-11T05:29:00.699Z,12.00
2018-05-11T05:31:28.276Z,12.10
2018-05-11T05:33:56.714Z,12.20
2018-05-11T05:36:24.329Z,12.20
2018-05-11T05:38:51.882Z,12.20
2018-05-11T05:41:20.261Z,12.40
2018-05-11T05:43:48.566Z,12.30
2018-05-11T05:46:16.096Z,12.30
2018-05-11T05:48:44.485Z,12.00
2018-05-11T05:51:12.098Z,12.00
2018-05-11T05:53:40.444Z,11.70
2018-05-11T05:56:08.055Z,11.70
2018-05-11T05:58:35.681Z,11.70
2018-05-11T06:01:03.285Z,11.60
2018-05-11T06:03:31.637Z,11.60
2018-05-11T06:05:59.232Z,11.60
2018-05-11T06:08:26.785Z,11.70
2018-05-11T06:10:55.116Z,11.70
2018-05-11T06:13:22.700Z,11.70
2018-05-11T06:15:50.349Z,11.70
2018-05-11T06:18:17.891Z,11.70
2018-05-11T06:20:45.428Z,11.80
2018-05-11T06:23:12.997Z,11.80
2018-05-11T06:25:40.548Z,11.90
2018-05-11T06:28:08.150Z,11.90
2018-05-11T06:30:35.674Z,11.90
2018-05-11T06:33:03.249Z,12.00
2018-05-11T06:35:30.785Z,12.10
2018-05-11T06:37:58.314Z,12.20
2018-05-11T06:40:25.861Z,12.40
2018-05-11T06:42:53.434Z,12.50
2018-05-11T06:45:21.041Z,12.70
2018-05-11T06:47:48.520Z,12.80
2018-05-11T06:50:16.096Z,12.80
2018-05-11T06:52:43.751Z,12.80
2018-05-11T06:55:11.330Z,12.80
2018-05-11T06:57:38.877Z,12.80
2018-05-11T07:00:06.454Z,12.80
2018-05-11T07:02:34.762Z,13.10
2018-05-11T07:05:02.298Z,13.00
2018-05-11T07:07:30.309Z,13.20
2018-05-11T07:09:57.867Z,13.40
2018-05-11T07:12:25.386Z,13.40
2018-05-11T07:14:52.916Z,13.70
2018-05-11T07:17:21.383Z,13.80
2018-05-11T07:19:48.963Z,13.90
2018-05-11T07:22:16.487Z,14.00
2018-05-11T07:24:44.789Z,14.20
2018-05-11T07:27:12.362Z,14.30
2018-05-11T07:29:40.026Z,14.50
2018-05-11T07:32:07.572Z,14.70
2018-05-11T07:34:35.081Z,15.00
2018-05-11T07:37:02.648Z,15.10
2018-05-11T07:39:30.223Z,15.10
2018-05-11T07:41:57.757Z,15.00
2018-05-11T07:44:26.087Z,15.40
2018-05-11T07:46:53.690Z,15.30
2018-05-11T07:49:21.978Z,15.50
2018-05-11T07:51:49.510Z,15.50
2018-05-11T07:54:17.127Z,15.40
2018-05-11T07:56:44.708Z,15.50
2018-05-11T07:59:12.325Z,15.70
2018-05-11T08:01:40.727Z,16.00
2018-05-11T08:04:08.297Z,16.00
2018-05-11T08:06:35.839Z,16.00
2018-05-11T08:09:03.452Z,16.00
2018-05-11T08:11:31.792Z,16.30
2018-05-11T08:13:59.383Z,16.30
2018-05-11T08:16:26.910Z,16.60
2018-05-11T08:18:54.446Z,16.60
2018-05-11T08:21:21.979Z,16.90
2018-05-11T08:23:50.454Z,17.20
2018-05-11T08:26:18.014Z,17.10
2018-05-11T08:28:46.338Z,17.30
2018-05-11T08:31:13.901Z,17.30
2018-05-11T08:33:41.458Z,17.30
2018-05-11T08:36:09.008Z,17.40
2018-05-11T08:38:36.690Z,17.20
2018-05-11T08:41:04.254Z,17.30
2018-05-11T08:43:33.434Z,17.20
2018-05-11T08:46:01.769Z,17.30
2018-05-11T08:48:29.424Z,17.30
2018-05-11T08:50:57.050Z,17.40
2018-05-11T08:53:24.626Z,17.40
2018-05-11T08:55:52.308Z,17.30
2018-05-11T08:58:19.952Z,17.40
2018-05-11T09:00:47.528Z,17.40
2018-05-11T09:03:15.846Z,17.60
2018-05-11T09:05:43.423Z,17.50
2018-05-11T09:08:11.774Z,17.50
2018-05-11T09:10:40.158Z,17.80
2018-05-11T09:13:07.714Z,17.70
2018-05-11T09:15:35.457Z,17.90
2018-05-11T09:18:03.837Z,18.30
2018-05-11T09:20:31.588Z,18.30
2018-05-11T09:22:59.210Z,18.40
2018-05-11T09:25:26.774Z,18.70
2018-05-11T09:27:54.371Z,18.40
2018-05-11T09:30:21.906Z,18.30
2018-05-11T09:32:49.473Z,18.40
2018-05-11T09:35:17.029Z,18.50
2018-05-11T09:37:44.598Z,18.50
2018-05-11T09:40:12.128Z,18.60
2018-05-11T09:42:39.722Z,18.80
2018-05-11T09:45:07.309Z,18.80
2018-05-11T09:47:34.904Z,18.90
2018-05-11T09:50:02.481Z,18.90
2018-05-11T09:52:30.031Z,18.80
2018-05-11T09:54:59.438Z,18.90
2018-05-11T09:57:27.139Z,18.90
2018-05-11T09:59:54.811Z,19.00
2018-05-11T10:02:22.355Z,19.10
2018-05-11T10:04:49.994Z,19.20
2018-05-11T10:07:17.537Z,19.30
2018-05-11T10:09:45.141Z,19.30
2018-05-11T10:12:13.520Z,19.00
2018-05-11T10:14:41.886Z,19.10
2018-05-11T10:17:09.510Z,19.10
2018-05-11T10:19:37.068Z,19.20
2018-05-11T10:22:04.600Z,19.20
2018-05-11T10:24:32.194Z,19.30
2018-05-11T10:26:59.810Z,19.50
2018-05-11T10:29:28.233Z,19.50
2018-05-11T10:31:55.879Z,19.50
2018-05-11T10:34:23.612Z,19.70
2018-05-11T10:36:51.309Z,19.90
2018-05-11T10:39:19.072Z,20.20
2018-05-11T10:41:47.035Z,20.30
2018-05-11T10:44:14.828Z,20.40
2018-05-11T10:46:48.374Z,20.50
2018-05-11T10:51:48.625Z,20.60
2018-05-11T10:54:28.713Z,20.70
2018-05-11T10:56:56.929Z,21.00
2018-05-11T10:59:26.910Z,20.60
2018-05-11T11:01:55.166Z,20.60
2018-05-11T11:04:22.718Z,20.50
2018-05-11T11:06:50.384Z,20.30
2018-05-11T11:09:26.203Z,20.40
2018-05-11T11:11:54.790Z,20.50
2018-05-11T11:14:23.880Z,20.60
2018-05-11T11:16:52.245Z,20.80
2018-05-11T11:19:19.873Z,20.70
2018-05-11T11:21:48.437Z,20.90
2018-05-11T11:24:15.988Z,20.90
2018-05-11T11:26:43.578Z,21.20
2018-05-11T11:29:11.153Z,21.20
2018-05-11T11:31:38.777Z,21.30
2018-05-11T11:36:46.118Z,21.40
2018-05-11T11:39:13.709Z,21.10
2018-05-11T11:41:41.282Z,21.40
2018-05-11T11:44:08.867Z,21.70
2018-05-11T11:46:36.434Z,21.90
2018-05-11T11:49:04.078Z,21.90
2018-05-11T11:51:31.619Z,21.70
2018-05-11T11:53:59.227Z,21.50
2018-05-11T11:56:26.867Z,21.50
2018-05-11T11:58:54.411Z,21.50
2018-05-11T12:01:22.742Z,21.70
2018-05-11T12:03:50.345Z,21.70
2018-05-11T12:06:18.724Z,21.60
2018-05-11T12:08:47.073Z,21.40
2018-05-11T12:11:14.700Z,21.40
2018-05-11T12:13:42.285Z,21.50
2018-05-11T12:16:09.851Z,21.40
2018-05-11T12:18:38.021Z,21.30
2018-05-11T12:21:05.587Z,21.20
2018-05-11T12:23:33.244Z,21.20
2018-05-11T12:26:00.890Z,21.20
2018-05-11T12:28:28.452Z,21.10
2018-05-11T12:30:56.101Z,21.10
2018-05-11T12:33:23.694Z,20.90
2018-05-11T12:35:51.265Z,20.80
2018-05-11T12:38:18.853Z,20.80
2018-05-11T12:40:46.502Z,20.70
2018-05-11T12:43:14.794Z,20.90
2018-05-11T12:45:43.176Z,21.00
2018-05-11T12:48:10.737Z,21.00
2018-05-11T12:50:39.036Z,21.00
2018-05-11T12:53:10.876Z,21.00
2018-05-11T12:55:38.411Z,20.90
2018-05-11T12:58:05.993Z,20.80
2018-05-11T13:00:33.561Z,20.80
2018-05-11T13:03:01.138Z,20.80
2018-05-11T13:05:29.030Z,20.70
2018-05-11T13:07:56.665Z,20.60
2018-05-11T13:10:24.344Z,20.60
2018-05-11T13:12:52.014Z,20.70
2018-05-11T13:15:20.386Z,21.00
2018-05-11T13:17:47.972Z,21.00
2018-05-11T13:20:15.568Z,21.00
2018-05-11T13:22:43.917Z,21.00
2018-05-11T13:25:11.485Z,21.00
2018-05-11T13:27:39.119Z,20.90
2018-05-11T13:30:06.734Z,20.80
2018-05-11T13:32:34.322Z,20.80
2018-05-11T13:35:01.943Z,20.70
2018-05-11T13:37:30.358Z,20.50
2018-05-11T13:39:57.976Z,20.50
2018-05-11T13:42:26.872Z,20.40
2018-05-11T13:44:54.505Z,20.40
2018-05-11T13:47:22.102Z,20.50
2018-05-11T13:49:50.473Z,20.80
2018-05-11T13:52:18.965Z,21.10
2018-05-11T13:54:47.292Z,21.20
2018-05-11T13:57:14.908Z,21.20
2018-05-11T13:59:42.543Z,21.20
2018-05-11T14:02:10.199Z,21.10
2018-05-11T14:04:37.851Z,21.00
2018-05-11T14:07:05.361Z,20.90
2018-05-11T14:09:32.982Z,20.90
2018-05-11T14:12:00.590Z,20.80
2018-05-11T14:14:28.183Z,20.80
2018-05-11T14:16:55.737Z,20.80
2018-05-11T14:19:23.417Z,20.90
2018-05-11T14:21:51.060Z,20.90
2018-05-11T14:24:18.682Z,21.00
2018-05-11T14:26:46.346Z,20.90
2018-05-11T14:29:13.986Z,20.90
2018-05-11T14:31:42.449Z,20.80
2018-05-11T14:34:10.065Z,20.80
2018-05-11T14:36:37.681Z,20.70
2018-05-11T14:39:05.325Z,20.80
2018-05-11T14:41:33.837Z,20.70
2018-05-11T14:44:01.405Z,20.70
2018-05-11T14:46:29.783Z,20.80
2018-05-11T14:48:58.094Z,20.70
2018-05-11T14:51:25.754Z,20.70
2018-05-11T14:53:53.400Z,20.80
2018-05-11T14:56:20.974Z,20.80
2018-05-11T14:58:48.656Z,20.80
2018-05-11T15:01:16.930Z,20.70
2018-05-11T15:03:45.347Z,20.60
2018-05-11T15:06:13.707Z,20.50
2018-05-11T15:08:41.403Z,20.60
2018-05-11T15:11:09.714Z,20.60
2018-05-11T15:13:37.586Z,20.60
2018-05-11T15:16:05.380Z,20.60
2018-05-11T15:18:33.042Z,20.60
2018-05-11T15:21:00.693Z,20.60
2018-05-11T15:23:28.265Z,20.60
2018-05-11T15:25:55.899Z,20.70
2018-05-11T15:28:23.495Z,20.70
2018-05-11T15:30:51.066Z,20.80
2018-05-11T15:33:19.495Z,20.70
2018-05-11T15:35:47.032Z,20.70
2018-05-11T15:38:14.683Z,20.70
2018-05-11T15:40:43.042Z,20.80
2018-05-11T15:43:11.451Z,20.70
2018-05-11T15:45:39.005Z,20.70
2018-05-11T15:48:06.556Z,20.80
2018-05-11T15:50:34.182Z,20.90
2018-05-11T15:53:01.824Z,20.80
2018-05-11T15:55:29.510Z,20.90
2018-05-11T15:57:57.069Z,20.80
2018-05-11T16:00:24.697Z,20.70
2018-05-11T16:02:53.020Z,20.70
2018-05-11T16:05:20.681Z,20.70
2018-05-11T16:07:48.383Z,20.70
2018-05-11T16:10:15.957Z,20.70
2018-05-11T16:12:43.681Z,20.60
2018-05-11T16:15:11.242Z,20.60
2018-05-11T16:17:38.815Z,20.50
2018-05-11T16:20:06.567Z,20.40
2018-05-11T16:22:34.919Z,20.40
2018-05-11T16:25:02.521Z,20.50
2018-05-11T16:27:30.121Z,20.50
2018-05-11T16:29:57.775Z,20.40
2018-05-11T16:32:25.616Z,20.40
2018-05-11T16:34:53.202Z,20.40
2018-05-11T16:37:21.658Z,20.40
2018-05-11T16:39:49.199Z,20.40
2018-05-11T16:42:16.917Z,20.50
2018-05-11T16:44:44.455Z,20.50
2018-05-11T16:47:12.756Z,20.30
2018-05-11T16:49:42.900Z,20.20
2018-05-11T16:52:10.502Z,20.20
2018-05-11T16:54:38.081Z,20.20
2018-05-11T16:57:05.627Z,20.10
2018-05-11T16:59:33.195Z,20.00
2018-05-11T17:02:00.735Z,20.10
2018-05-11T17:04:28.325Z,20.10
2018-05-11T17:06:55.954Z,20.10
2018-05-11T17:09:23.563Z,20.10
2018-05-11T17:11:51.113Z,20.10
2018-05-11T17:14:18.680Z,20.10
2018-05-11T17:16:46.282Z,20.10
2018-05-11T17:19:13.825Z,20.10
2018-05-11T17:21:42.164Z,20.10
2018-05-11T17:24:10.483Z,20.10
2018-05-11T17:26:38.102Z,20.20
2018-05-11T17:29:06.468Z,20.20
2018-05-11T17:31:34.075Z,20.10
2018-05-11T17:34:01.640Z,20.10
2018-05-11T17:36:30.316Z,20.10
2018-05-11T17:38:57.945Z,20.00
2018-05-11T17:41:25.544Z,20.00
2018-05-11T17:43:53.131Z,19.90
2018-05-11T17:46:21.448Z,19.90
2018-05-11T17:48:48.995Z,19.90
2018-05-11T17:51:16.543Z,19.80
2018-05-11T17:53:44.237Z,19.90
2018-05-11T17:56:11.861Z,19.80
2018-05-11T17:58:39.411Z,19.80
2018-05-11T18:01:07.717Z,19.60
2018-05-11T18:03:35.296Z,19.60
2018-05-11T18:06:03.520Z,19.50
2018-05-11T18:08:31.845Z,19.40
2018-05-11T18:10:59.387Z,19.30
2018-05-11T18:13:27.196Z,19.30
2018-05-11T18:15:54.769Z,19.30
2018-05-11T18:18:22.342Z,19.20
2018-05-11T18:20:49.861Z,19.10
2018-05-11T18:23:19.098Z,18.80
2018-05-11T18:25:47.446Z,18.80
2018-05-11T18:28:15.304Z,18.80
2018-05-11T18:30:42.851Z,18.70
2018-05-11T18:33:10.450Z,18.60
2018-05-11T18:35:38.058Z,18.50
2018-05-11T18:38:05.589Z,18.40
2018-05-11T18:40:33.927Z,18.10
2018-05-11T18:43:02.381Z,18.00
2018-05-11T18:45:29.934Z,18.00
2018-05-11T18:47:57.456Z,18.00
2018-05-11T18:50:26.962Z,17.80
2018-05-11T18:52:54.993Z,17.80
2018-05-11T18:55:22.459Z,17.80
2018-05-11T18:57:49.989Z,17.70
2018-05-11T19:00:17.558Z,17.60
2018-05-11T19:02:45.133Z,17.60
2018-05-11T19:05:12.734Z,17.50
2018-05-11T19:07:41.029Z,17.30
2018-05-11T19:10:08.660Z,17.30
2018-05-11T19:12:37.053Z,17.30
2018-05-11T19:15:05.365Z,17.20
2018-05-11T19:17:32.995Z,17.20
2018-05-11T19:20:01.340Z,17.10
2018-05-11T19:22:28.941Z,17.10
2018-05-11T19:24:56.503Z,17.00
2018-05-11T19:27:24.101Z,17.00
2018-05-11T19:29:51.673Z,17.00
2018-05-11T19:32:20.030Z,16.90
2018-05-11T19:34:47.581Z,16.80
2018-05-11T19:37:15.191Z,16.80
2018-05-11T19:39:42.806Z,16.70
2018-05-11T19:42:10.357Z,16.50
2018-05-11T19:44:37.939Z,16.50
2018-05-11T19:47:05.484Z,16.40
2018-05-11T19:49:33.081Z,16.40
2018-05-11T19:52:00.664Z,16.30
2018-05-11T19:54:29.082Z,16.30
2018-05-11T19:56:56.619Z,16.20
2018-05-11T19:59:25.668Z,16.20
2018-05-11T20:01:53.254Z,16.20
2018-05-11T20:04:21.585Z,16.10
2018-05-11T20:06:49.118Z,16.00
2018-05-11T20:09:17.257Z,16.10
2018-05-11T20:11:45.558Z,16.00
2018-05-11T20:14:13.886Z,16.00
2018-05-11T20:16:41.479Z,16.00
2018-05-11T20:19:09.113Z,16.00
2018-05-11T20:21:36.662Z,15.90
2018-05-11T20:24:04.409Z,16.00
2018-05-11T20:26:31.948Z,16.00
2018-05-11T20:28:59.481Z,15.90
2018-05-11T20:31:27.059Z,15.80
2018-05-11T20:33:54.605Z,15.70
2018-05-11T20:36:22.961Z,15.50
2018-05-11T20:38:50.626Z,15.50
2018-05-11T20:41:18.212Z,15.40
2018-05-11T20:43:46.527Z,15.30
2018-05-11T20:46:14.187Z,15.30
2018-05-11T20:48:41.742Z,15.30
2018-05-11T20:51:09.323Z,15.30
2018-05-11T20:53:36.900Z,15.30
2018-05-11T20:56:04.440Z,15.30
2018-05-11T20:58:32.039Z,15.30
2018-05-11T21:00:59.600Z,15.20
2018-05-11T21:03:28.033Z,15.20
2018-05-11T21:05:55.644Z,15.20
2018-05-11T21:08:24.066Z,15.00
2018-05-11T21:10:52.443Z,14.90
2018-05-11T21:13:20.723Z,14.90
2018-05-11T21:15:48.306Z,14.80
2018-05-11T21:18:15.849Z,15.00
2018-05-11T21:20:43.399Z,15.00
2018-05-11T21:23:10.928Z,14.90
2018-05-11T21:25:39.280Z,14.50
2018-05-11T21:28:06.874Z,14.50
2018-05-11T21:30:35.213Z,14.70
2018-05-11T21:33:02.790Z,14.70
2018-05-11T21:35:30.357Z,14.80
2018-05-11T21:37:57.963Z,14.80
2018-05-11T21:40:25.499Z,14.70
2018-05-11T21:42:53.092Z,14.60
2018-05-11T21:45:23.442Z,14.50
2018-05-11T21:47:51.026Z,14.50
2018-05-11T21:50:18.610Z,14.50
2018-05-11T21:52:46.313Z,14.40
2018-05-11T21:55:13.858Z,14.40
2018-05-11T21:57:42.272Z,14.40
2018-05-11T22:00:09.862Z,14.30
2018-05-11T22:02:37.411Z,14.20
2018-05-11T22:05:05.030Z,14.20
2018-05-11T22:07:32.590Z,14.10
2018-05-11T22:10:00.120Z,14.10
2018-05-11T22:12:27.697Z,14.00
2018-05-11T22:14:55.271Z,14.00
2018-05-11T22:17:22.879Z,13.90
2018-05-11T22:19:51.153Z,13.90
2018-05-11T22:22:19.477Z,14.00
2018-05-11T22:24:47.335Z,14.00
2018-05-11T22:27:14.875Z,14.00
2018-05-11T22:29:42.426Z,14.00
2018-05-11T22:32:09.992Z,13.90
2018-05-11T22:34:37.531Z,13.90
2018-05-11T22:37:05.853Z,13.90
2018-05-11T22:39:33.409Z,13.90
2018-05-11T22:42:01.054Z,13.90
2018-05-11T22:44:28.537Z,13.80
2018-05-11T22:46:56.078Z,13.80
2018-05-11T22:49:23.875Z,13.80
2018-05-11T22:51:51.437Z,13.80
2018-05-11T22:54:19.962Z,13.70
2018-05-11T22:56:48.253Z,13.50
2018-05-11T22:59:15.845Z,13.50
2018-05-11T23:01:43.413Z,13.50
2018-05-11T23:04:11.048Z,13.50
2018-05-11T23:06:38.658Z,13.50
2018-05-11T23:09:06.198Z,13.50
2018-05-11T23:11:33.771Z,13.40
2018-05-11T23:14:01.375Z,13.40
2018-05-11T23:16:28.985Z,13.30
2018-05-11T23:18:56.531Z,13.40
2018-05-11T23:21:24.100Z,13.30
2018-05-11T23:23:51.645Z,13.40
2018-05-11T23:26:19.185Z,13.30
2018-05-11T23:28:46.742Z,13.30
2018-05-11T23:31:14.263Z,13.30
2018-05-11T23:33:42.585Z,13.20
2018-05-11T23:36:10.117Z,13.10
2018-05-11T23:38:38.433Z,13.20
2018-05-11T23:41:05.985Z,13.20
2018-05-11T23:43:33.594Z,13.10
2018-05-11T23:46:01.130Z,13.20
2018-05-11T23:48:29.260Z,13.10
2018-05-11T23:50:57.572Z,13.00
2018-05-11T23:53:25.130Z,13.00
2018-05-11T23:55:52.952Z,12.90
2018-05-11T23:58:20.523Z,12.80
